createdAt,value
2023-04-22T00:02:09.974Z,65.87
2023-04-22T00:04:38.204Z,65.38
2023-04-22T00:07:06.524Z,65.43
2023-04-22T00:09:34.577Z,64.99
2023-04-22T00:16:35.869Z,65.33
2023-04-22T00:19:05.206Z,65.64
2023-04-22T00:21:33.458Z,65.01
2023-04-22T00:24:01.853Z,65.18
2023-04-22T00:26:29.900Z,64.78
2023-04-22T00:28:58.442Z,64.65
2023-04-22T00:31:26.653Z,64.65
2023-04-22T00:33:56.168Z,65.06
2023-04-22T00:36:24.744Z,65.10
2023-04-22T00:38:52.837Z,65.02
2023-04-22T00:41:21.277Z,65.12
2023-04-22T00:43:52.344Z,65.37
2023-04-22T00:46:21.593Z,65.28
2023-04-22T00:48:50.243Z,65.35
2023-04-22T00:51:19.643Z,65.00
2023-04-22T00:53:47.785Z,65.19
2023-04-22T00:56:16.447Z,65.49
2023-04-22T00:58:45.259Z,64.97
2023-04-22T01:01:13.492Z,64.68
2023-04-22T01:03:42.435Z,65.12
2023-04-22T01:06:10.685Z,65.08
2023-04-22T01:08:41.147Z,64.89
2023-04-22T01:11:09.249Z,65.24
2023-04-22T01:13:38.276Z,65.10
2023-04-22T01:16:08.803Z,65.49
2023-04-22T01:18:37.637Z,65.32
2023-04-22T01:21:07.068Z,65.11
2023-04-22T01:23:36.890Z,65.31
2023-04-22T01:26:04.936Z,65.66
2023-04-22T01:28:33.672Z,65.66
2023-04-22T01:31:01.921Z,65.77
2023-04-22T01:33:31.557Z,65.48
2023-04-22T01:36:01.684Z,65.08
2023-04-22T01:38:33.356Z,65.11
2023-04-22T01:41:03.409Z,64.96
2023-04-22T01:43:32.759Z,65.12
2023-04-22T01:46:02.383Z,65.30
2023-04-22T01:48:30.534Z,65.48
2023-04-22T01:50:58.668Z,65.48
2023-04-22T01:53:26.706Z,65.87
2023-04-22T01:55:54.809Z,65.19
2023-04-22T01:58:24.120Z,65.48
2023-04-22T02:00:52.164Z,65.64
2023-04-22T02:03:20.390Z,65.35
2023-04-22T02:05:49.159Z,64.77
2023-04-22T02:08:17.431Z,64.94
2023-04-22T02:10:46.207Z,64.95
2023-04-22T02:13:14.235Z,64.95
2023-04-22T02:15:43.618Z,65.21
2023-04-22T02:18:12.181Z,65.38
2023-04-22T02:20:40.349Z,65.04
2023-04-22T02:23:08.446Z,65.25
2023-04-22T02:25:38.232Z,65.00
2023-04-22T02:28:06.601Z,65.02
2023-04-22T02:30:34.866Z,65.29
2023-04-22T02:33:04.443Z,65.66
2023-04-22T02:35:32.596Z,65.06
2023-04-22T02:38:00.656Z,65.35
2023-04-22T02:40:28.767Z,65.50
2023-04-22T02:42:57.393Z,65.10
2023-04-22T02:45:25.488Z,65.43
2023-04-22T02:47:53.501Z,65.39
2023-04-22T02:50:23.013Z,64.90
2023-04-22T02:52:51.346Z,64.29
2023-04-22T02:55:19.667Z,64.39
2023-04-22T02:57:47.740Z,63.96
2023-04-22T03:00:16.226Z,64.12
2023-04-22T03:02:44.439Z,64.16
2023-04-22T03:05:15.949Z,64.06
2023-04-22T03:07:47.373Z,64.22
2023-04-22T03:10:17.209Z,63.61
2023-04-22T03:12:45.641Z,63.95
2023-04-22T03:15:14.069Z,63.72
2023-04-22T03:17:42.189Z,63.64
2023-04-22T03:20:13.686Z,63.39
2023-04-22T03:22:42.753Z,63.86
2023-04-22T03:25:14.427Z,63.55
2023-04-22T03:27:46.939Z,63.33
2023-04-22T03:30:15.350Z,63.65
2023-04-22T03:32:43.718Z,63.72
2023-04-22T03:35:20.527Z,63.80
2023-04-22T03:37:50.922Z,63.49
2023-04-22T03:40:25.144Z,63.94
2023-04-22T03:42:53.253Z,63.94
2023-04-22T03:45:22.720Z,63.66
2023-04-22T03:48:15.122Z,63.18
2023-04-22T03:50:48.502Z,63.02
2023-04-22T03:53:17.277Z,62.96
2023-04-22T03:55:47.570Z,63.03
2023-04-22T03:58:16.891Z,63.46
2023-04-22T04:00:45.301Z,63.46
2023-04-22T04:03:17.304Z,63.75
2023-04-22T04:05:48.825Z,63.75
2023-04-22T04:08:17.043Z,63.89
2023-04-22T04:10:46.629Z,63.83
2023-04-22T04:13:16.109Z,63.97
2023-04-22T04:15:54.493Z,63.91
2023-04-22T04:18:23.575Z,64.24
2023-04-22T04:20:52.065Z,64.04
2023-04-22T04:23:20.240Z,64.78
2023-04-22T04:29:14.723Z,64.29
2023-04-22T04:31:48.144Z,64.25
2023-04-22T04:34:16.595Z,64.10
2023-04-22T04:36:46.428Z,64.52
2023-04-22T04:39:28.538Z,64.52
2023-04-22T04:42:00.395Z,65.07
2023-04-22T04:44:32.121Z,63.86
2023-04-22T04:47:00.786Z,64.84
2023-04-22T04:49:30.509Z,64.29
2023-04-22T04:52:01.940Z,64.47
2023-04-22T04:54:31.043Z,63.80
2023-04-22T04:57:03.167Z,63.68
2023-04-22T04:59:32.347Z,63.13
2023-04-22T05:02:00.736Z,62.87
2023-04-22T05:04:30.429Z,63.64
2023-04-22T05:06:58.614Z,63.41
2023-04-22T05:09:27.421Z,63.81
2023-04-22T05:11:55.853Z,63.05
2023-04-22T05:14:27.634Z,63.04
2023-04-22T05:16:55.820Z,62.70
2023-04-22T05:19:24.020Z,62.52
2023-04-22T05:21:53.999Z,62.33
2023-04-22T05:24:22.365Z,62.48
2023-04-22T05:26:51.697Z,62.22
2023-04-22T05:29:20.921Z,62.20
2023-04-22T05:31:50.565Z,61.72
2023-04-22T05:34:18.627Z,61.71
2023-04-22T05:36:46.989Z,62.31
2023-04-22T05:39:15.687Z,62.13
2023-04-22T05:41:46.140Z,61.36
2023-04-22T05:44:15.132Z,61.37
2023-04-22T05:46:43.262Z,61.50
2023-04-22T05:49:12.954Z,61.63
2023-04-22T05:51:59.496Z,61.67
2023-04-22T05:54:34.587Z,62.16
2023-04-22T05:57:03.734Z,61.98
2023-04-22T05:59:32.174Z,61.84
2023-04-22T06:02:00.609Z,62.30
2023-04-22T06:04:30.342Z,62.12
2023-04-22T06:07:01.523Z,62.34
2023-04-22T06:09:29.655Z,62.98
2023-04-22T06:11:58.195Z,62.89
2023-04-22T06:14:26.638Z,62.68
2023-04-22T06:16:55.817Z,62.70
2023-04-22T06:19:24.147Z,62.52
2023-04-22T06:21:53.720Z,62.87
2023-04-22T06:24:22.144Z,63.41
2023-04-22T06:26:50.385Z,63.10
2023-04-22T06:29:18.598Z,63.08
2023-04-22T06:31:46.732Z,63.09
2023-04-22T06:34:14.824Z,63.24
2023-04-22T06:36:42.982Z,63.28
2023-04-22T06:39:12.617Z,62.92
2023-04-22T06:42:04.148Z,63.10
2023-04-22T06:44:52.537Z,63.27
2023-04-22T06:47:30.218Z,63.06
2023-04-22T06:50:10.628Z,63.48
2023-04-22T06:52:46.926Z,62.74
2023-04-22T06:55:16.434Z,62.71
2023-04-22T06:57:44.574Z,62.86
2023-04-22T07:00:14.449Z,62.97
2023-04-22T07:02:43.341Z,62.64
2023-04-22T07:05:11.530Z,62.71
2023-04-22T07:07:40.169Z,62.40
2023-04-22T07:10:12.608Z,62.05
2023-04-22T07:12:49.660Z,62.67
2023-04-22T07:15:17.929Z,61.94
2023-04-22T07:17:46.026Z,61.94
2023-04-22T07:20:14.260Z,61.85
2023-04-22T07:22:42.283Z,61.81
2023-04-22T07:25:11.285Z,61.61
2023-04-22T07:27:39.457Z,61.75
2023-04-22T07:30:12.871Z,61.84
2023-04-22T07:32:40.993Z,61.80
2023-04-22T07:35:09.959Z,61.51
2023-04-22T07:37:38.111Z,61.37
2023-04-22T07:40:11.597Z,61.13
2023-04-22T07:42:40.420Z,61.57
2023-04-22T07:45:10.755Z,61.79
2023-04-22T07:47:40.541Z,61.66
2023-04-22T07:50:09.842Z,62.02
2023-04-22T07:52:38.042Z,62.67
2023-04-22T07:55:08.078Z,62.23
2023-04-22T07:57:38.634Z,61.99
2023-04-22T08:00:11.235Z,61.61
2023-04-22T08:02:44.133Z,61.93
2023-04-22T08:05:12.570Z,61.78
2023-04-22T08:07:40.988Z,61.60
2023-04-22T08:10:10.571Z,61.34
2023-04-22T08:12:38.880Z,62.25
2023-04-22T08:15:09.983Z,61.76
2023-04-22T08:17:38.259Z,61.12
2023-04-22T08:20:09.060Z,60.69
2023-04-22T08:22:38.718Z,60.41
2023-04-22T08:25:09.319Z,58.66
2023-04-22T08:27:38.371Z,57.89
2023-04-22T08:30:10.052Z,57.50
2023-04-22T08:32:38.327Z,57.05
2023-04-22T08:35:07.239Z,57.39
2023-04-22T08:37:36.173Z,56.89
2023-04-22T08:40:05.196Z,56.20
2023-04-22T08:42:34.250Z,56.80
2023-04-22T08:45:04.232Z,56.43
2023-04-22T08:47:35.392Z,54.51
2023-04-22T08:50:05.287Z,54.32
2023-04-22T08:52:33.960Z,53.83
2023-04-22T08:55:02.166Z,53.80
2023-04-22T08:57:30.778Z,54.30
2023-04-22T08:59:59.708Z,54.23
2023-04-22T09:02:29.941Z,53.58
2023-04-22T09:05:01.706Z,53.17
2023-04-22T09:07:32.477Z,51.68
2023-04-22T09:10:00.974Z,50.26
2023-04-22T09:12:29.354Z,51.42
2023-04-22T09:14:58.022Z,51.00
2023-04-22T09:17:34.300Z,51.34
2023-04-22T09:20:12.145Z,51.92
2023-04-22T09:26:02.935Z,51.40
2023-04-22T09:31:50.341Z,49.75
2023-04-22T09:34:18.457Z,49.12
2023-04-22T09:36:51.441Z,48.93
2023-04-22T09:39:19.794Z,48.05
2023-04-22T09:41:56.604Z,49.05
2023-04-22T09:44:28.321Z,46.98
2023-04-22T09:46:56.670Z,47.77
2023-04-22T09:49:24.694Z,48.26
2023-04-22T09:51:57.936Z,45.01
2023-04-22T09:54:26.141Z,45.22
2023-04-22T09:56:55.455Z,44.31
2023-04-22T09:59:25.134Z,45.83
2023-04-22T10:01:55.926Z,44.92
2023-04-22T10:04:25.453Z,42.80
2023-04-22T10:06:56.034Z,42.40
2023-04-22T10:09:26.226Z,42.83
2023-04-22T10:11:58.038Z,41.57
2023-04-22T10:14:27.132Z,42.35
2023-04-22T10:17:00.039Z,42.66
2023-04-22T10:19:29.169Z,42.72
2023-04-22T10:22:03.325Z,40.18
2023-04-22T10:24:37.070Z,40.46
2023-04-22T10:27:08.298Z,40.02
2023-04-22T10:29:42.568Z,38.11
2023-04-22T10:32:27.038Z,38.00
2023-04-22T10:35:13.482Z,36.86
2023-04-22T10:37:48.927Z,37.09
2023-04-22T10:40:19.125Z,39.45
2023-04-22T10:42:56.277Z,38.85
2023-04-22T10:45:26.790Z,37.07
2023-04-22T10:47:54.947Z,36.27
2023-04-22T10:50:26.438Z,35.28
2023-04-22T10:52:57.753Z,35.22
2023-04-22T10:55:27.271Z,37.54
2023-04-22T10:57:55.516Z,35.21
2023-04-22T11:00:53.020Z,35.57
2023-04-22T11:03:29.072Z,37.76
2023-04-22T11:06:18.609Z,37.01
2023-04-22T11:08:49.805Z,35.18
2023-04-22T11:11:19.848Z,34.81
2023-04-22T11:13:51.777Z,35.61
2023-04-22T11:16:23.389Z,35.21
2023-04-22T11:18:51.798Z,34.26
2023-04-22T11:21:21.086Z,33.76
2023-04-22T11:23:53.581Z,33.44
2023-04-22T11:26:35.901Z,32.68
2023-04-22T11:29:04.372Z,34.37
2023-04-22T11:31:32.595Z,33.83
2023-04-22T11:34:00.967Z,34.34
2023-04-22T11:36:29.184Z,34.86
2023-04-22T11:38:58.679Z,35.73
2023-04-22T11:41:29.917Z,36.79
2023-04-22T11:43:58.043Z,35.92
2023-04-22T11:46:38.401Z,36.02
2023-04-22T11:49:14.762Z,36.03
2023-04-22T11:51:56.489Z,36.27
2023-04-22T11:54:33.720Z,36.73
2023-04-22T11:57:04.529Z,36.00
2023-04-22T11:59:32.806Z,37.39
2023-04-22T12:02:00.933Z,39.09
2023-04-22T12:04:29.000Z,37.02
2023-04-22T12:06:57.027Z,36.77
2023-04-22T12:09:26.759Z,36.93
2023-04-22T12:11:56.224Z,35.50
2023-04-22T12:14:32.547Z,37.12
2023-04-22T12:17:04.256Z,37.51
2023-04-22T12:19:32.504Z,37.72
2023-04-22T12:22:01.001Z,38.05
2023-04-22T12:24:30.187Z,36.86
2023-04-22T12:27:00.157Z,37.79
2023-04-22T12:29:32.156Z,37.33
2023-04-22T12:32:00.414Z,37.35
2023-04-22T12:34:28.630Z,36.67
2023-04-22T12:36:56.956Z,36.35
2023-04-22T12:39:25.032Z,35.20
2023-04-22T12:41:53.101Z,35.61
2023-04-22T12:44:24.948Z,35.38
2023-04-22T12:46:53.746Z,35.25
2023-04-22T12:49:22.229Z,36.25
2023-04-22T12:51:51.239Z,36.31
2023-04-22T12:54:21.432Z,37.13
2023-04-22T12:56:49.954Z,37.90
2023-04-22T12:59:18.030Z,38.27
2023-04-22T13:01:47.342Z,41.36
2023-04-22T13:04:16.655Z,41.23
2023-04-22T13:06:44.829Z,41.38
2023-04-22T13:09:13.185Z,42.45
2023-04-22T13:11:41.292Z,42.81
2023-04-22T13:14:09.395Z,43.22
2023-04-22T13:16:37.843Z,43.89
2023-04-22T13:19:07.731Z,44.04
2023-04-22T13:21:35.930Z,44.53
2023-04-22T13:24:04.211Z,44.62
2023-04-22T13:26:32.383Z,44.58
2023-04-22T13:29:02.145Z,44.10
2023-04-22T13:31:31.036Z,43.30
2023-04-22T13:33:59.445Z,41.79
2023-04-22T13:36:29.009Z,40.52
2023-04-22T13:38:58.342Z,40.74
2023-04-22T13:41:26.365Z,40.83
2023-04-22T13:43:56.173Z,40.01
2023-04-22T13:46:25.538Z,40.07
2023-04-22T13:48:54.348Z,39.81
2023-04-22T13:51:22.431Z,39.86
2023-04-22T13:53:51.815Z,39.84
2023-04-22T13:56:19.908Z,40.18
2023-04-22T13:58:48.147Z,40.33
2023-04-22T14:01:16.320Z,40.57
2023-04-22T14:03:45.511Z,40.26
2023-04-22T14:06:14.447Z,39.64
2023-04-22T14:08:43.039Z,39.25
2023-04-22T14:11:12.612Z,39.94
2023-04-22T14:13:40.979Z,39.73
2023-04-22T14:16:10.195Z,40.09
2023-04-22T14:18:40.213Z,39.57
2023-04-22T14:21:10.144Z,40.39
2023-04-22T14:23:41.878Z,41.46
2023-04-22T14:26:13.757Z,41.74
2023-04-22T14:28:42.427Z,41.45
2023-04-22T14:31:11.673Z,42.52
2023-04-22T14:33:39.934Z,43.00
2023-04-22T14:36:08.715Z,41.78
2023-04-22T14:38:36.706Z,41.70
2023-04-22T14:41:06.217Z,42.11
2023-04-22T14:43:36.119Z,40.85
2023-04-22T14:46:04.542Z,40.73
2023-04-22T14:48:35.282Z,41.61
2023-04-22T14:51:03.539Z,41.67
2023-04-22T14:53:33.432Z,41.59
2023-04-22T14:56:01.543Z,41.56
2023-04-22T14:58:31.752Z,41.97
2023-04-22T15:01:01.616Z,42.21
2023-04-22T15:03:30.131Z,42.09
2023-04-22T15:05:58.879Z,42.41
2023-04-22T15:08:27.477Z,44.38
2023-04-22T15:10:55.606Z,42.87
2023-04-22T15:13:24.030Z,42.26
2023-04-22T15:15:52.383Z,43.86
2023-04-22T15:18:21.942Z,43.05
2023-04-22T15:20:49.987Z,42.56
2023-04-22T15:23:18.143Z,42.93
2023-04-22T15:25:46.345Z,42.51
2023-04-22T15:28:14.836Z,42.33
2023-04-22T15:30:43.746Z,42.65
2023-04-22T15:33:12.051Z,42.45
2023-04-22T15:35:43.162Z,42.68
2023-04-22T15:38:11.434Z,42.26
2023-04-22T15:40:39.480Z,42.81
2023-04-22T15:43:07.554Z,42.35
2023-04-22T15:45:35.903Z,42.23
2023-04-22T15:48:05.767Z,41.75
2023-04-22T15:50:34.206Z,42.04
2023-04-22T15:53:03.606Z,42.57
2023-04-22T15:55:31.773Z,42.36
2023-04-22T15:57:59.789Z,43.04
2023-04-22T16:00:27.977Z,42.89
2023-04-22T16:02:56.372Z,43.33
2023-04-22T16:05:25.394Z,43.59
2023-04-22T16:07:54.169Z,43.67
2023-04-22T16:10:26.192Z,43.72
2023-04-22T16:12:54.295Z,44.50
2023-04-22T16:15:24.660Z,44.37
2023-04-22T16:17:53.011Z,45.87
2023-04-22T16:20:21.201Z,46.37
2023-04-22T16:22:49.300Z,45.75
2023-04-22T16:25:17.572Z,45.56
2023-04-22T16:27:47.285Z,45.07
2023-04-22T16:30:16.429Z,44.85
2023-04-22T16:32:44.570Z,45.09
2023-04-22T16:35:12.658Z,44.63
2023-04-22T16:37:40.862Z,44.74
2023-04-22T16:40:10.468Z,45.28
2023-04-22T16:42:38.608Z,44.89
2023-04-22T16:45:09.394Z,45.23
2023-04-22T16:47:37.546Z,45.07
2023-04-22T16:50:07.025Z,44.75
2023-04-22T16:52:35.018Z,45.09
2023-04-22T16:55:05.107Z,44.87
2023-04-22T16:57:33.268Z,44.98
2023-04-22T17:00:01.620Z,44.92
2023-04-22T17:02:31.132Z,44.50
2023-04-22T17:05:01.113Z,44.85
2023-04-22T17:07:29.345Z,45.30
2023-04-22T17:09:57.510Z,45.07
2023-04-22T17:12:25.714Z,45.03
2023-04-22T17:14:53.897Z,45.59
2023-04-22T17:17:22.023Z,45.51
2023-04-22T17:19:51.439Z,45.27
2023-04-22T17:22:19.593Z,45.63
2023-04-22T17:24:47.699Z,45.82
2023-04-22T17:27:16.289Z,46.14
2023-04-22T17:29:44.348Z,46.69
2023-04-22T17:32:12.517Z,46.95
2023-04-22T17:34:40.939Z,47.58
2023-04-22T17:37:10.625Z,47.63
2023-04-22T17:39:39.842Z,48.08
2023-04-22T17:42:07.884Z,47.81
2023-04-22T17:44:36.507Z,48.30
2023-04-22T17:47:05.943Z,48.65
2023-04-22T17:49:35.349Z,49.16
2023-04-22T17:52:03.562Z,49.28
2023-04-22T17:54:33.626Z,49.34
2023-04-22T17:57:02.165Z,49.32
2023-04-22T17:59:31.578Z,50.42
2023-04-22T18:02:00.301Z,50.63
2023-04-22T18:04:55.911Z,50.34
2023-04-22T18:07:23.972Z,52.12
2023-04-22T18:09:53.553Z,52.59
2023-04-22T18:12:24.186Z,53.10
2023-04-22T18:14:52.266Z,53.12
2023-04-22T18:17:20.385Z,53.77
2023-04-22T18:19:50.905Z,52.22
2023-04-22T18:22:19.940Z,53.20
2023-04-22T18:24:48.051Z,53.25
2023-04-22T18:27:17.546Z,52.94
2023-04-22T18:29:47.871Z,52.83
2023-04-22T18:32:16.744Z,53.16
2023-04-22T18:34:44.920Z,53.10
2023-04-22T18:37:13.012Z,53.20
2023-04-22T18:39:40.996Z,52.98
2023-04-22T18:42:09.225Z,53.58
2023-04-22T18:44:38.879Z,53.94
2023-04-22T18:47:07.424Z,54.10
2023-04-22T18:49:36.666Z,54.25
2023-04-22T18:52:04.719Z,53.98
2023-04-22T18:54:32.791Z,54.25
2023-04-22T18:57:02.210Z,54.79
2023-04-22T18:59:30.888Z,54.24
2023-04-22T19:02:00.570Z,55.49
2023-04-22T19:04:28.679Z,55.90
2023-04-22T19:06:56.903Z,57.09
2023-04-22T19:09:25.078Z,58.03
2023-04-22T19:11:53.186Z,58.26
2023-04-22T19:14:21.440Z,58.43
2023-04-22T19:16:49.686Z,58.75
2023-04-22T19:19:19.215Z,59.28
2023-04-22T19:21:47.289Z,58.67
2023-04-22T19:24:16.104Z,58.51
2023-04-22T19:26:45.426Z,58.64
2023-04-22T19:29:16.013Z,58.29
2023-04-22T19:31:44.922Z,57.92
2023-04-22T19:34:13.178Z,57.79
2023-04-22T19:36:42.503Z,57.83
2023-04-22T19:39:10.497Z,57.75
2023-04-22T19:41:38.956Z,57.89
2023-04-22T19:44:07.842Z,57.88
2023-04-22T19:46:36.874Z,57.32
2023-04-22T19:49:06.434Z,57.52
2023-04-22T19:51:34.990Z,57.53
2023-04-22T19:54:04.899Z,56.46
2023-04-22T19:56:34.737Z,55.93
2023-04-22T19:59:02.994Z,56.27
2023-04-22T20:01:31.930Z,56.32
2023-04-22T20:04:00.731Z,56.45
2023-04-22T20:06:29.424Z,56.36
2023-04-22T20:08:58.924Z,56.43
2023-04-22T20:11:29.293Z,56.07
2023-04-22T20:13:57.617Z,56.06
2023-04-22T20:16:26.950Z,56.48
2023-04-22T20:18:55.467Z,56.38
2023-04-22T20:21:23.911Z,56.63
2023-04-22T20:23:56.670Z,55.96
2023-04-22T20:26:25.286Z,55.63
2023-04-22T20:28:54.911Z,55.09
2023-04-22T20:31:23.914Z,55.30
2023-04-22T20:33:53.422Z,55.58
2023-04-22T20:36:22.226Z,55.63
2023-04-22T20:38:52.074Z,55.90
2023-04-22T20:41:20.659Z,55.75
2023-04-22T20:43:48.976Z,56.03
2023-04-22T20:46:19.675Z,55.94
2023-04-22T20:48:49.141Z,56.01
2023-04-22T20:51:17.452Z,55.95
2023-04-22T20:53:45.479Z,56.15
2023-04-22T20:56:14.051Z,56.31
2023-04-22T20:58:42.097Z,55.86
2023-04-22T21:01:10.611Z,55.75
2023-04-22T21:03:41.143Z,55.96
2023-04-22T21:06:10.453Z,56.06
2023-04-22T21:08:40.537Z,56.11
2023-04-22T21:11:09.487Z,56.22
2023-04-22T21:13:38.381Z,56.25
2023-04-22T21:16:10.414Z,56.35
2023-04-22T21:18:44.097Z,56.20
2023-04-22T21:21:12.902Z,56.43
2023-04-22T21:23:42.440Z,56.37
2023-04-22T21:26:11.404Z,56.27
2023-04-22T21:28:40.177Z,56.11
2023-04-22T21:31:09.056Z,56.21
2023-04-22T21:33:37.068Z,56.54
2023-04-22T21:36:07.012Z,56.33
2023-04-22T21:38:35.112Z,56.37
2023-04-22T21:41:03.214Z,56.75
2023-04-22T21:43:31.346Z,56.98
2023-04-22T21:45:59.457Z,57.12
2023-04-22T21:48:27.670Z,57.25
2023-04-22T21:50:55.703Z,56.95
2023-04-22T21:53:25.076Z,57.33
2023-04-22T21:55:53.440Z,57.53
2023-04-22T21:58:21.585Z,57.54
2023-04-22T22:00:49.742Z,57.84
2023-04-22T22:03:17.968Z,57.91
2023-04-22T22:05:46.185Z,57.83
2023-04-22T22:08:14.406Z,58.01
2023-04-22T22:10:43.886Z,58.11
2023-04-22T22:13:11.885Z,58.07
2023-04-22T22:15:39.917Z,58.02
2023-04-22T22:18:08.224Z,58.11
2023-04-22T22:20:36.910Z,58.14
2023-04-22T22:23:04.914Z,58.18
2023-04-22T22:25:32.948Z,58.07
2023-04-22T22:28:02.311Z,57.82
2023-04-22T22:30:31.082Z,58.14
2023-04-22T22:32:59.225Z,58.02
2023-04-22T22:35:27.550Z,58.11
2023-04-22T22:37:55.642Z,58.02
2023-04-22T22:40:23.832Z,57.93
2023-04-22T22:42:51.891Z,57.68
2023-04-22T22:45:21.255Z,57.93
2023-04-22T22:47:49.716Z,57.36
2023-04-22T22:50:17.741Z,57.57
2023-04-22T22:52:45.794Z,57.55
2023-04-22T22:55:13.824Z,57.69
2023-04-22T22:57:42.172Z,57.83
2023-04-22T23:00:12.628Z,57.82
2023-04-22T23:02:42.550Z,57.76
2023-04-22T23:05:11.086Z,57.74
2023-04-22T23:07:39.359Z,57.77
2023-04-22T23:10:09.430Z,57.70
2023-04-22T23:12:37.723Z,58.07
2023-04-22T23:15:08.874Z,57.80
2023-04-22T23:17:37.280Z,57.82
2023-04-22T23:20:09.556Z,57.96
2023-04-22T23:22:40.165Z,57.77
2023-04-22T23:25:10.374Z,57.86
2023-04-22T23:27:39.122Z,58.10
2023-04-22T23:30:10.444Z,57.98
2023-04-22T23:32:41.460Z,57.92
2023-04-22T23:35:14.041Z,57.74
2023-04-22T23:37:45.598Z,57.80
2023-04-22T23:40:14.692Z,57.75
2023-04-22T23:42:43.835Z,57.67
2023-04-22T23:45:15.243Z,57.46
2023-04-22T23:47:43.348Z,57.55
2023-04-22T23:50:15.854Z,57.66
2023-04-22T23:52:43.904Z,57.65
2023-04-22T23:55:15.857Z,57.55
2023-04-22T23:57:44.629Z,57.62
